FW4212 Weather Reports


Display with metric or nautical units.
time (UTC)temp
F
wind
direction
speed
MPH
gust
MPH
rain 1hr
in
rain 24hr
in
rain mn
in
humidity
%
barometer
mb
20260906145015 68 74 0.0 3.0 0.20 0.20 0.20 96 1014.7
20260906144523 68 88 0.0 2.0 0.20 0.20 0.20 96 1014.8
20260906144015 68 78 0.0 2.0 0.20 0.20 0.20 95 1015.1
20260906143515 67 91 0.0 2.0 0.20 0.20 0.20 95 1015.3
20260906143014 68 219 0.0 3.0 0.19 0.19 0.19 95 1015.5
20260906142515 68 210 0.0 3.0 0.18 0.18 0.18 94 1015.3
20260906142018 68 205 1.0 3.0 0.17 0.17 0.17 93 1015.1
20260906141515 68 143 0.0 3.0 0.15 0.15 0.15 93 1015.0
20260906141013 69 342 0.0 5.0 0.07 0.07 0.07 91 1015.1
20260906140516 71 16 2.0 8.0 0.01 0.01 0.01 89 1015.4
20260906140020 71 346 3.0 8.0 0.00 0.00 0.00 91 1015.7
20260906135511 71 295 2.0 6.0 0.00 0.00 0.00 93 1015.7
20260906135010 71 328 0.0 4.0 0.00 0.00 0.00 93 1015.7
20260906134531 71 338 1.0 4.0 0.00 0.00 0.00 93 1016.0
20260906134009 71 27 0.0 0.0 0.00 0.00 0.00 93 1015.3
20260906133507 71 95 0.0 2.0 0.00 0.00 0.00 93 1014.9
20260906133007 71 98 0.0 2.0 0.00 0.00 0.00 94 1014.7
20260906132508 71 111 0.0 2.0 0.00 0.00 0.00 93 1014.7
20260906132008 71 69 0.0 1.0 0.00 0.00 0.00 93 1014.6
20260906131507 71 104 0.0 2.0 0.00 0.00 0.00 93 1014.6
20260906131009 71 68 0.0 3.0 0.00 0.00 0.00 94 1014.7
20260906130506 70 58 0.0 4.0 0.00 0.00 0.00 93 1014.7
20260906130005 70 96 1.0 4.0 0.00 0.00 0.00 94 1014.4
20260906125505 70 103 0.0 3.0 0.00 0.00 0.00 94 1014.5
20260906125005 70 94 1.0 3.0 0.00 0.00 0.00 94 1014.5
20260906124504 70 65 0.0 2.0 0.00 0.00 0.00 94 1014.5
20260906124003 70 63 1.0 2.0 0.00 0.00 0.00 94 1014.3
20260906123503 70 69 0.0 0.0 0.00 0.00 0.00 94 1014.1
20260906123003 70 98 0.0 0.0 0.00 0.00 0.00 94 1014.1
20260906122506 70 98 0.0 0.0 0.00 0.00 0.00 94 1014.1
20260906122003 70 98 0.0 0.0 0.00 0.00 0.00 94 1014.2
20260906121502 70 81 0.0 0.0 0.00 0.00 0.00 95 1014.1
20260906121100 70 220 0.0 0.0 0.00 0.00 0.00 95 1013.9
20260906120559 70 220 0.0 0.0 0.00 0.00 0.00 95 1013.6
20260906120059 69 220 0.0 0.0 0.00 0.00 0.00 96 1013.5
20260906115558 69 220 0.0 0.0 0.00 0.00 0.00 96 1013.4
20260906115057 69 220 0.0 0.0 0.00 0.00 0.00 96 1013.3
20260906114608 69 220 0.0 0.0 0.00 0.00 0.00 96 1013.2
20260906114058 69 220 0.0 0.0 0.00 0.00 0.00 96 1013.4
20260906113557 69 220 0.0 0.0 0.00 0.00 0.00 96 1013.3
20260906113058 68 220 0.0 0.0 0.00 0.00 0.00 96 1013.3
20260906112557 68 220 0.0 0.0 0.00 0.00 0.00 97 1013.4
20260906112100 68 220 0.0 0.0 0.00 0.00 0.00 96 1013.3
20260906111559 68 220 0.0 0.0 0.00 0.00 0.00 96 1013.1
20260906111057 68 220 0.0 0.0 0.00 0.00 0.00 96 1013.0
20260906110559 68 220 0.0 0.0 0.00 0.00 0.00 96 1013.0
20260906110100 68 220 0.0 0.0 0.00 0.00 0.00 96 1013.0
20260906105559 68 220 0.0 0.0 0.00 0.00 0.00 96 1013.0
20260906105056 68 220 0.0 0.0 0.00 0.00 0.00 96 1012.9
20260906104623 68 220 0.0 0.0 0.00 0.00 0.00 96 1013.0
20260906104056 68 220 0.0 0.0 0.00 0.00 0.00 96 1013.1
20260906103556 67 220 0.0 0.0 0.00 0.00 0.00 97 1013.1
20260906103055 67 220 0.0 0.0 0.00 0.00 0.00 96 1013.1
20260906102555 67 220 0.0 0.0 0.00 0.00 0.00 96 1012.9
20260906102055 68 220 0.0 0.0 0.00 0.00 0.00 96 1012.9
20260906101555 68 220 0.0 0.0 0.00 0.00 0.00 96 1012.9
20260906101055 68 220 0.0 0.0 0.00 0.00 0.00 96 1012.9
20260906100554 68 220 0.0 0.0 0.00 0.00 0.00 96 1012.7
20260906100054 68 220 0.0 0.0 0.00 0.00 0.00 96 1012.7
20260906095553 68 220 0.0 0.0 0.00 0.00 0.00 96 1012.6
20260906095053 68 220 0.0 0.0 0.00 0.00 0.00 96 1012.6
20260906094554 67 220 0.0 0.0 0.00 0.00 0.00 96 1012.6
20260906094052 67 220 0.0 0.0 0.00 0.00 0.00 96 1012.6
20260906093552 68 220 0.0 0.0 0.00 0.00 0.00 96 1012.7
20260906093108 68 220 0.0 0.0 0.00 0.00 0.00 96 1012.5
20260906092553 68 220 0.0 0.0 0.00 0.00 0.00 96 1012.3
20260906092051 68 220 0.0 0.0 0.00 0.00 0.00 96 1012.2
20260906091551 68 220 0.0 0.0 0.00 0.00 0.00 96 1012.0
20260906091053 68 220 0.0 0.0 0.00 0.00 0.00 96 1012.1
20260906090550 68 220 0.0 0.0 0.00 0.00 0.00 96 1012.1
20260906090051 68 220 0.0 0.0 0.00 0.00 0.00 96 1012.0
20260906085548 68 220 0.0 0.0 0.00 0.00 0.00 95 1012.1
20260906085052 69 220 0.0 0.0 0.00 0.00 0.00 96 1012.0
20260906084548 69 220 0.0 0.0 0.00 0.00 0.00 95 1012.1
20260906084051 69 220 0.0 0.0 0.00 0.00 0.00 95 1012.1
20260906083547 69 220 0.0 0.0 0.00 0.00 0.00 95 1012.1
20260906083047 69 220 0.0 0.0 0.00 0.00 0.00 95 1012.0
20260906082546 69 220 0.0 0.0 0.00 0.00 0.00 95 1012.0
20260906082046 69 220 0.0 0.0 0.00 0.00 0.00 95 1012.0
20260906081545 69 220 0.0 0.0 0.00 0.00 0.00 95 1012.0
20260906081045 69 220 0.0 0.0 0.00 0.00 0.00 95 1011.9
20260906080547 69 220 0.0 0.0 0.00 0.00 0.00 95 1011.9
20260906080045 69 220 0.0 0.0 0.00 0.00 0.00 95 1012.0
20260906075544 69 220 0.0 0.0 0.00 0.00 0.00 95 1011.9
20260906075044 69 220 0.0 0.0 0.00 0.00 0.00 95 1011.9
20260906074544 69 220 0.0 0.0 0.00 0.00 0.00 95 1011.8
20260906074043 69 313 0.0 0.0 0.00 0.00 0.00 95 1011.8
20260906073547 69 313 0.0 0.0 0.00 0.00 0.00 95 1011.9
20260906073043 69 313 0.0 0.0 0.00 0.00 0.00 95 1011.7
20260906072543 69 313 0.0 0.0 0.00 0.00 0.00 95 1011.8
20260906072043 69 313 0.0 0.0 0.00 0.00 0.00 95 1011.9
20260906071544 69 313 0.0 1.0 0.00 0.00 0.00 94 1011.8
20260906071042 69 313 0.0 1.0 0.00 0.00 0.00 94 1011.8
20260906070541 70 313 0.0 0.0 0.00 0.00 0.00 94 1011.8
20260906070040 70 313 0.0 0.0 0.00 0.00 0.00 94 1011.9
20260906065541 70 313 0.0 0.0 0.00 0.00 0.00 95 1012.0
20260906065039 70 313 0.0 0.0 0.00 0.00 0.00 95 1012.2
20260906064538 70 313 0.0 0.0 0.00 0.00 0.00 94 1012.2
20260906064038 70 313 0.0 0.0 0.00 0.00 0.00 94 1012.2
20260906063536 70 313 0.0 0.0 0.00 0.00 0.00 94 1012.3
20260906063035 70 313 0.0 0.0 0.00 0.00 0.00 94 1012.6
20260906062536 70 313 0.0 0.0 0.00 0.00 0.00 94 1012.6
20260906062036 70 313 0.0 1.0 0.00 0.00 0.00 95 1012.6
20260906061535 70 313 0.0 1.0 0.00 0.00 0.00 95 1012.6
20260906061033 70 250 0.0 0.0 0.00 0.00 0.00 94 1012.7
20260906060533 70 250 0.0 0.0 0.00 0.00 0.00 95 1012.8
20260906060033 70 227 0.0 0.0 0.00 0.00 0.00 94 1012.9
20260906055531 70 227 0.0 0.0 0.00 0.00 0.00 94 1013.0
20260906055031 70 227 0.0 0.0 0.00 0.00 0.00 94 1013.0
20260906054530 70 227 0.0 0.0 0.00 0.00 0.00 94 1013.0
20260906054030 70 227 0.0 0.0 0.00 0.00 0.00 94 1013.0
20260906053530 70 227 0.0 0.0 0.00 0.00 0.00 94 1013.0
20260906053031 70 227 0.0 0.0 0.00 0.00 0.00 94 1013.1
20260906052529 70 227 0.0 0.0 0.00 0.00 0.00 94 1013.1
20260906052029 70 227 0.0 0.0 0.00 0.00 0.00 94 1013.2
20260906051533 70 227 0.0 0.0 0.00 0.00 0.00 93 1013.1
20260906051029 70 227 0.0 0.0 0.00 0.00 0.00 94 1013.3
20260906050528 70 227 0.0 0.0 0.00 0.00 0.00 94 1013.4
20260906050029 70 215 0.0 0.0 0.00 0.00 0.00 94 1013.5
20260906045527 70 215 0.0 4.0 0.00 0.00 0.00 94 1013.3
20260906045027 70 218 2.0 4.0 0.00 0.00 0.00 94 1013.3
20260906044526 70 263 0.0 1.0 0.00 0.00 0.00 93 1013.2
20260906044026 70 263 0.0 0.0 0.00 0.00 0.00 93 1013.1
20260906043525 70 263 0.0 0.0 0.00 0.00 0.00 93 1013.2
20260906043025 70 263 0.0 0.0 0.00 0.00 0.00 93 1013.3
20260906042524 71 263 0.0 0.0 0.00 0.00 0.00 93 1013.3
20260906042024 71 263 0.0 0.0 0.00 0.00 0.00 93 1013.3
20260906041525 71 263 0.0 0.0 0.00 0.00 0.00 93 1013.4
20260906041023 71 263 0.0 0.0 0.00 0.00 0.00 92 1013.5
20260906040522 71 263 0.0 0.0 0.00 0.00 0.00 92 1013.4
20260906040020 71 263 0.0 0.0 0.00 0.00 0.00 92 1013.3
20260906035519 72 263 0.0 0.0 0.00 0.00 0.00 91 1013.5
20260906035019 72 263 0.0 0.0 0.00 0.00 0.00 91 1013.6
20260906034519 72 263 0.0 0.0 0.00 0.00 0.00 90 1013.6
20260906034018 73 263 0.0 0.0 0.00 0.00 0.00 90 1013.6
20260906033519 73 263 0.0 0.0 0.00 0.00 0.00 90 1013.6
20260906033019 73 262 0.0 0.0 0.00 0.00 0.00 90 1013.5
20260906032518 73 263 0.0 0.0 0.00 0.00 0.00 90 1013.4
20260906032019 73 263 0.0 0.0 0.00 0.00 0.00 90 1013.5
20260906031518 73 263 0.0 0.0 0.00 0.00 0.00 90 1013.6
20260906031019 73 262 0.0 1.0 0.00 0.00 0.00 90 1013.7
20260906030518 73 263 0.0 1.0 0.00 0.00 0.00 90 1013.6
20260906030018 73 263 0.0 0.0 0.00 0.00 0.00 91 1013.5
20260906025517 73 263 0.0 0.0 0.00 0.00 0.00 91 1013.3
20260906025017 73 263 0.0 0.0 0.00 0.00 0.00 91 1013.2
20260906024517 73 263 0.0 0.0 0.00 0.00 0.00 91 1013.2
20260906024017 73 263 0.0 0.0 0.00 0.00 0.00 91 1013.2
20260906023520 73 263 0.0 1.0 0.00 0.00 0.00 92 1013.3
20260906023021 73 263 0.0 1.0 0.00 0.00 0.00 92 1013.2
20260906022517 73 263 0.0 0.0 0.00 0.00 0.00 92 1013.4
20260906022017 73 263 0.0 0.0 0.00 0.00 0.00 92 1013.2
20260906021517 73 263 0.0 0.0 0.00 0.00 0.00 92 1013.2
20260906021019 73 263 0.0 0.0 0.00 0.00 0.00 91 1013.0
20260906020516 73 263 0.0 0.0 0.00 0.00 0.00 91 1013.2
20260906020017 73 263 0.0 0.0 0.00 0.00 0.00 91 1013.2
20260906015515 73 263 0.0 0.0 0.00 0.00 0.00 91 1013.1
20260906015015 73 263 0.0 0.0 0.00 0.00 0.00 91 1012.9
20260906014521 73 263 0.0 0.0 0.00 0.00 0.00 90 1013.0
20260906014016 73 263 0.0 0.0 0.00 0.00 0.00 89 1013.0
20260906013515 74 263 0.0 1.0 0.00 0.00 0.00 89 1013.2
20260906013023 74 263 0.0 1.0 0.00 0.00 0.00 88 1013.1
20260906012515 74 263 0.0 0.0 0.00 0.00 0.00 88 1012.9
20260906012017 75 263 0.0 0.0 0.00 0.00 0.00 87 1012.7
20260906011519 75 263 0.0 0.0 0.00 0.00 0.00 87 1012.7
20260906011014 75 262 0.0 0.0 0.00 0.00 0.00 88 1012.6
20260906010515 75 263 0.0 0.0 0.00 0.00 0.00 88 1012.6
20260906010015 75 263 0.0 1.0 0.00 0.00 0.00 88 1012.5
20260906005518 75 263 0.0 1.0 0.00 0.00 0.00 88 1012.5
20260906005015 75 263 0.0 2.0 0.00 0.00 0.00 87 1012.6
20260906004514 75 263 0.0 2.0 0.00 0.00 0.00 87 1012.6
20260906004016 75 263 0.0 0.0 0.00 0.00 0.00 87 1012.5
20260906003513 75 263 0.0 0.0 0.00 0.00 0.00 86 1012.4
20260906003013 75 263 0.0 0.0 0.00 0.00 0.00 86 1012.4
20260906002514 76 263 0.0 0.0 0.00 0.00 0.00 85 1012.1
20260906002013 76 262 0.0 0.0 0.00 0.00 0.00 84 1012.0
20260906001513 76 263 0.0 0.0 0.00 0.00 0.00 83 1012.0
20260906001012 76 263 0.0 0.0 0.00 0.00 0.00 83 1012.0
20260906000513 76 263 0.0 0.0 0.00 0.00 0.00 83 1011.8
20260906000012 76 263 0.0 0.0 0.00 0.00 0.00 82 1011.7
20260905235512 77 263 0.0 0.0 0.00 0.00 0.00 82 1011.7
20260905235012 77 263 0.0 0.0 0.00 0.00 0.00 81 1011.7
20260905234511 77 263 0.0 0.0 0.00 0.00 0.00 80 1011.7
20260905234011 77 263 0.0 0.0 0.00 0.00 0.00 80 1011.6
20260905233512 78 263 0.0 0.0 0.00 0.00 0.00 79 1011.6
20260905233015 78 263 0.0 0.0 0.00 0.00 0.00 78 1011.7
20260905232514 78 263 0.0 1.0 0.00 0.00 0.00 77 1011.7
20260905232011 80 263 0.0 2.0 0.00 0.00 0.00 75 1011.7
20260905231511 80 263 0.0 4.0 0.00 0.00 0.00 74 1011.5
20260905231014 80 254 1.0 4.0 0.00 0.00 0.00 73 1011.5
20260905230511 80 258 0.0 2.0 0.00 0.00 0.00 75 1011.5
20260905230013 80 274 0.0 3.0 0.00 0.00 0.00 77 1011.7
20260905225511 80 244 0.0 0.0 0.00 0.00 0.00 76 1011.5
20260905225010 80 244 0.0 2.0 0.00 0.00 0.00 75 1011.4
20260905224510 81 234 0.0 2.0 0.00 0.00 0.00 73 1011.4
20260905224009 81 274 0.0 2.0 0.00 0.00 0.00 72 1011.6
20260905223509 81 274 0.0 3.0 0.00 0.00 0.00 72 1011.8
20260905223009 81 323 0.0 4.0 0.00 0.00 0.00 72 1011.9
20260905222610 82 267 0.0 4.0 0.00 0.00 0.00 71 1011.7
20260905222008 82 271 0.0 3.0 0.00 0.00 0.00 71 1011.9
20260905221513 82 258 1.0 4.0 0.00 0.00 0.00 70 1011.8
20260905221009 81 238 2.0 6.0 0.00 0.00 0.00 71 1011.8
20260905220508 82 271 1.0 6.0 0.00 0.00 0.00 70 1011.8
20260905220113 81 287 1.0 5.0 0.00 0.00 0.00 72 1011.8
20260905215507 81 273 0.0 0.0 0.00 0.00 0.00 74 1012.0
20260905215007 81 273 0.0 0.0 0.00 0.00 0.00 72 1012.0
20260905214507 82 273 0.0 4.0 0.00 0.00 0.00 72 1012.0
20260905214007 82 190 1.0 4.0 0.00 0.00 0.00 71 1012.1
20260905213512 81 202 1.0 3.0 0.00 0.00 0.00 70 1012.1
20260905213007 82 269 0.0 2.0 0.00 0.00 0.00 74 1012.2
20260905212510 81 269 0.0 2.0 0.00 0.00 0.00 74 1012.3
20260905212006 81 259 0.0 3.0 0.00 0.00 0.00 72 1012.2
20260905211517 81 256 0.0 3.0 0.00 0.00 0.00 74 1012.1
20260905211006 81 225 0.0 3.0 0.00 0.00 0.00 73 1012.1
20260905210506 81 225 0.0 4.0 0.00 0.00 0.00 74 1012.1
20260905210107 81 208 1.0 4.0 0.00 0.00 0.00 72 1012.0
20260905205505 81 205 1.0 3.0 0.00 0.00 0.00 71 1012.3
20260905205005 81 214 0.0 4.0 0.00 0.00 0.00 72 1012.2
20260905204505 81 227 1.0 4.0 0.00 0.00 0.00 72 1012.2
20260905204005 80 225 0.0 2.0 0.00 0.00 0.00 75 1012.3
20260905203505 80 229 0.0 1.0 0.00 0.00 0.00 74 1012.3
20260905203005 79 229 0.0 2.0 0.00 0.00 0.00 77 1012.4
20260905202506 79 229 0.0 2.0 0.00 0.00 0.00 78 1012.2
20260905202004 79 273 0.0 5.0 0.00 0.00 0.00 79 1012.2
20260905201505 79 225 2.0 5.0 0.00 0.00 0.00 78 1012.2
20260905201004 79 223 1.0 4.0 0.00 0.00 0.00 77 1012.3
20260905200504 79 224 0.0 2.0 0.00 0.00 0.00 76 1012.3
20260905200109 79 225 0.0 3.0 0.00 0.00 0.00 76 1012.4
20260905195503 79 211 0.0 3.0 0.00 0.00 0.00 75 1012.4
20260905195004 79 208 0.0 2.0 0.00 0.00 0.00 75 1012.4
20260905194503 79 251 0.0 0.0 0.00 0.00 0.00 75 1012.5
20260905194003 79 251 0.0 1.0 0.00 0.00 0.00 76 1012.5
20260905193503 80 251 0.0 2.0 0.00 0.00 0.00 76 1012.3
20260905193113 80 251 0.0 2.0 0.00 0.00 0.00 75 1012.3
20260905192502 80 308 0.0 2.0 0.00 0.00 0.00 77 1012.2
20260905192003 79 275 0.0 2.0 0.00 0.00 0.00 77 1012.4
20260905191502 79 325 0.0 3.0 0.00 0.00 0.00 78 1012.5
20260905191002 79 247 0.0 3.0 0.00 0.00 0.00 79 1012.3
20260905190501 79 236 0.0 4.0 0.00 0.00 0.00 78 1012.2
20260905185501 79 304 1.0 2.0 0.00 0.00 0.00 78 1012.5
20260905185001 79 77 0.0 0.0 0.00 0.00 0.00 78 1012.0
20260905184504 79 77 0.0 0.0 0.00 0.00 0.00 81 1011.8
20260905184100 79 77 0.0 0.0 0.00 0.00 0.00 82 1011.8
20260905183600 80 77 0.0 0.0 0.00 0.00 0.00 79 1011.9
20260905183102 79 77 0.0 2.0 0.00 0.00 0.00 81 1011.7
20260905182559 80 77 0.0 2.0 0.00 0.00 0.00 81 1011.8
20260905182059 80 140 0.0 2.0 0.00 0.00 0.00 81 1011.9
20260905181558 80 275 0.0 1.0 0.00 0.00 0.00 83 1012.3
20260905181059 80 275 0.0 2.0 0.00 0.00 0.00 83 1012.7
20260905180558 79 275 0.0 2.0 0.00 0.00 0.00 83 1012.9
20260905180057 79 281 0.0 2.0 0.00 0.00 0.00 82 1012.9
20260905175558 80 260 0.0 2.0 0.00 0.00 0.00 82 1012.7
20260905175055 80 239 1.0 4.0 0.00 0.00 0.00 81 1012.8
20260905174558 81 217 2.0 4.0 0.00 0.00 0.00 76 1012.8
20260905174054 83 258 0.0 8.0 0.00 0.00 0.00 74 1013.4
20260905173554 85 234 1.0 8.0 0.00 0.00 0.00 70 1013.4
20260905173053 86 284 1.0 4.0 0.00 0.00 0.00 68 1013.6
20260905172554 87 294 1.0 3.0 0.00 0.00 0.00 64 1013.4
20260905172054 88 306 0.0 3.0 0.00 0.00 0.00 66 1013.2
20260905171559 89 302 0.0 3.0 0.00 0.00 0.00 67 1013.4
20260905171056 89 307 0.0 4.0 0.00 0.00 0.00 62 1013.4
20260905170553 89 213 1.0 3.0 0.00 0.00 0.00 65 1013.4
20260905170053 90 265 0.0 6.0 0.00 0.00 0.00 63 1013.3
20260905165552 91 244 2.0 6.0 0.00 0.00 0.00 63 1013.5
20260905165052 90 227 1.0 5.0 0.00 0.00 0.00 61 1013.6
20260905164552 90 286 0.0 5.0 0.00 0.00 0.00 64 1013.6
20260905164052 90 223 1.0 6.0 0.00 0.00 0.00 59 1013.5
20260905163552 90 255 1.0 7.0 0.00 0.00 0.00 59 1013.5
20260905163054 91 227 3.0 7.0 0.00 0.00 0.00 58 1013.5
20260905162554 91 343 0.0 8.0 0.00 0.00 0.00 65 1013.6
20260905162049 90 257 2.0 5.0 0.00 0.00 0.00 62 1013.7
20260905161549 90 239 2.0 5.0 0.00 0.00 0.00 62 1013.7
20260905161048 90 236 1.0 4.0 0.00 0.00 0.00 60 1013.8
20260905160548 90 227 0.0 4.0 0.00 0.00 0.00 60 1014.0
20260905160048 90 56 1.0 4.0 0.00 0.00 0.00 60 1014.1
20260905155546 90 239 0.0 4.0 0.00 0.00 0.00 62 1014.2
20260905155045 89 105 0.0 4.0 0.00 0.00 0.00 64 1014.2
20260905154557 89 247 1.0 5.0 0.00 0.00 0.00 64 1013.9
20260905154047 89 199 1.0 4.0 0.00 0.00 0.00 65 1014.0
20260905153544 89 242 0.0 2.0 0.00 0.00 0.00 64 1014.1
20260905153044 88 309 0.0 2.0 0.00 0.00 0.00 63 1013.9
20260905152544 89 268 0.0 4.0 0.00 0.00 0.00 63 1014.0
20260905152042 88 268 2.0 4.0 0.00 0.00 0.00 62 1013.9
20260905151541 88 44 0.0 1.0 0.00 0.00 0.00 66 1013.9
20260905151040 87 44 0.0 2.0 0.00 0.00 0.00 70 1013.9
20260905150541 87 198 0.0 4.0 0.00 0.00 0.00 69 1013.9
20260905150040 87 211 0.0 3.0 0.00 0.00 0.00 73 1014.1
20260905145538 87 266 0.0 3.0 0.00 0.00 0.00 71 1014.1